Time;durP1;ratioP1;P1;durP2;ratioP2;P2;SDS_P1;SDS_P2;PMS_P1;PMS_P2;Temp;Humidity;BMP_temperature;BMP_pressure;BME280_temperature;BME280_humidity;BME280_pressure;Samples;Min_cycle;Max_cycle;Signal;HPM_P1;HPM_P2
2023/04/27 00:00:02;;;;;;;3.83;2.93;;;9.30;99.90;;;;;;20585356;28;20081;-74
2023/04/27 00:10:09;;;;;;;5.78;2.90;;;9.10;99.90;;;;;;20583899;28;20058;-74
2023/04/27 00:20:11;;;;;;;7.03;3.40;;;8.80;99.90;;;;;;20566331;28;20039;-73
2023/04/27 00:30:12;;;;;;;8.40;3.80;;;8.50;99.90;;;;;;20582792;28;20058;-74
2023/04/27 00:40:12;;;;;;;9.50;3.80;;;8.70;99.90;;;;;;20582244;28;20038;-74
2023/04/27 00:50:13;;;;;;;10.70;5.10;;;8.70;99.90;;;;;;20581689;28;20413;-74
2023/04/27 01:00:14;;;;;;;7.37;3.83;;;8.80;99.90;;;;;;20562148;28;20050;-74
2023/04/27 01:10:15;;;;;;;4.47;3.30;;;8.80;99.90;;;;;;20579705;28;20084;-74
2023/04/27 01:20:16;;;;;;;5.33;2.87;;;8.70;99.90;;;;;;20577017;28;20506;-74
2023/04/27 01:30:17;;;;;;;5.03;3.10;;;8.60;99.90;;;;;;20578512;28;20030;-74
2023/04/27 01:40:18;;;;;;;10.20;3.70;;;8.60;99.90;;;;;;20561250;28;20045;-74
2023/04/27 01:50:19;;;;;;;10.27;3.90;;;8.70;99.90;;;;;;20578210;28;20030;-74
2023/04/27 02:00:20;;;;;;;9.63;3.67;;;8.60;99.90;;;;;;20560584;28;20043;-74
2023/04/27 02:10:25;;;;;;;6.10;3.60;;;8.70;99.90;;;;;;20573484;28;20058;-74
2023/04/27 02:20:30;;;;;;;7.18;4.18;;;8.60;99.90;;;;;;20592141;28;20027;-74
2023/04/27 02:30:31;;;;;;;4.40;2.90;;;8.20;99.90;;;;;;20573680;28;20406;-73
2023/04/27 02:40:32;;;;;;;7.43;3.85;;;8.20;99.90;;;;;;20591204;28;20058;-74
2023/04/27 02:50:38;;;;;;;12.20;3.33;;;8.30;99.90;;;;;;20589436;28;20058;-74
2023/04/27 03:00:40;;;;;;;7.05;3.53;;;8.10;99.90;;;;;;20607712;23;20562;-74
2023/04/27 03:10:41;;;;;;;6.30;3.60;;;8.00;99.90;;;;;;20652625;28;20041;-73
2023/04/27 03:20:43;;;;;;;11.98;4.30;;;7.90;99.90;;;;;;20650109;28;20037;-72
2023/04/27 03:30:45;;;;;;;9.30;3.87;;;7.80;99.90;;;;;;20685992;28;20022;-73
2023/04/27 03:40:45;;;;;;;7.47;4.43;;;7.70;99.90;;;;;;20672279;28;20065;-72
2023/04/27 03:50:47;;;;;;;8.50;4.33;;;7.90;99.90;;;;;;20672844;28;20027;-73
2023/04/27 04:00:49;;;;;;;7.50;4.57;;;8.00;99.90;;;;;;20649005;28;20062;-73
2023/04/27 04:10:50;;;;;;;;;;;8.10;99.90;;;;;;20645508;28;20072;-73
2023/04/27 04:20:51;;;;;;;4.57;3.33;;;7.90;99.90;;;;;;20666282;28;19940;-76
2023/04/27 04:30:52;;;;;;;6.07;3.33;;;7.70;99.90;;;;;;20719160;28;20397;-75
2023/04/27 04:40:53;;;;;;;11.23;3.83;;;7.70;99.90;;;;;;20680864;28;20454;-76
2023/04/27 04:50:53;;;;;;;10.33;3.50;;;7.90;99.90;;;;;;20715582;28;20319;-77
2023/04/27 05:00:54;;;;;;;7.23;3.60;;;7.90;99.90;;;;;;20743201;28;20124;-77
2023/04/27 05:10:55;;;;;;;6.93;3.80;;;8.10;99.90;;;;;;20742084;28;20026;-76
2023/04/27 05:20:56;;;;;;;6.30;3.30;;;8.20;99.90;;;;;;20680803;28;20033;-77
2023/04/27 05:30:57;;;;;;;5.73;3.20;;;8.30;99.90;;;;;;20661337;28;20036;-76
2023/04/27 05:40:58;;;;;;;7.10;3.33;;;8.40;99.90;;;;;;20649511;28;20060;-76
2023/04/27 05:51:00;;;;;;;;;;;8.90;99.90;;;;;;20675956;28;20089;-75
2023/04/27 06:01:02;;;;;;;5.43;3.40;;;9.10;99.90;;;;;;20675332;28;19917;-74
2023/04/27 06:11:06;;;;;;;8.52;3.53;;;9.40;99.90;;;;;;20639549;28;20066;-74
2023/04/27 06:21:07;;;;;;;5.45;3.58;;;9.90;99.90;;;;;;20673364;28;20027;-74
2023/04/27 06:31:07;;;;;;;9.70;3.57;;;10.20;99.90;;;;;;20673536;28;20374;-74
2023/04/27 06:41:08;;;;;;;6.50;4.07;;;10.40;99.90;;;;;;20672735;28;20022;-74
2023/04/27 06:51:09;;;;;;;6.30;3.87;;;10.80;99.90;;;;;;20670813;28;20133;-74
2023/04/27 07:01:10;;;;;;;7.50;3.60;;;10.80;99.90;;;;;;20671135;28;20038;-74
2023/04/27 07:11:11;;;;;;;8.93;4.63;;;11.10;99.90;;;;;;20670221;28;20041;-75
2023/04/27 07:21:12;;;;;;;8.60;3.60;;;11.70;99.90;;;;;;20652381;28;20065;-74
2023/04/27 07:31:13;;;;;;;10.83;4.67;;;11.70;99.90;;;;;;20668621;28;20030;-74
2023/04/27 07:41:13;;;;;;;7.67;4.23;;;11.60;99.90;;;;;;20668123;28;20033;-74
2023/04/27 07:51:16;;;;;;;9.63;4.47;;;11.80;99.90;;;;;;20649861;28;20092;-74
2023/04/27 08:01:17;;;;;;;6.00;3.92;;;12.00;99.90;;;;;;20666350;28;20045;-74
2023/04/27 08:11:17;;;;;;;9.27;4.93;;;12.30;99.90;;;;;;20663943;28;20109;-73
2023/04/27 08:21:18;;;;;;;8.23;4.57;;;12.60;99.90;;;;;;20665616;28;20026;-73
2023/04/27 08:31:19;;;;;;;7.97;4.70;;;12.90;99.90;;;;;;20664121;28;20030;-74
2023/04/27 08:41:21;;;;;;;7.67;4.13;;;14.80;99.90;;;;;;20663659;28;20504;-74
2023/04/27 08:51:23;;;;;;;6.07;3.38;;;16.70;99.90;;;;;;20662672;28;20038;-74
2023/04/27 09:01:25;;;;;;;8.13;3.10;;;17.70;99.90;;;;;;20711734;23;20041;-74
2023/04/27 09:11:37;;;;;;;4.15;3.45;;;17.00;99.90;;;;;;20827702;28;20032;-75
2023/04/27 09:21:37;;;;;;;38.45;18.02;;;16.70;99.90;;;;;;20789144;28;20091;-75
2023/04/27 09:31:39;;;;;;;10.07;2.70;;;18.00;99.90;;;;;;20769752;28;20034;-75
2023/04/27 09:41:40;;;;;;;5.63;2.67;;;17.50;99.90;;;;;;20751891;28;20034;-75
2023/04/27 09:51:41;;;;;;;5.68;1.75;;;17.40;99.90;;;;;;20769421;28;20026;-75
2023/04/27 10:01:46;;;;;;;13.23;4.60;;;18.10;99.90;;;;;;20751398;28;20099;-75
2023/04/27 10:11:47;;;;;;;13.40;7.55;;;18.70;99.90;;;;;;20768447;28;20037;-75
2023/04/27 10:21:59;;;;;;;5.20;1.93;;;18.40;99.90;;;;;;20768258;28;20457;-74
2023/04/27 10:32:05;;;;;;;2.35;1.60;;;18.40;99.90;;;;;;20757531;28;20480;-75
2023/04/27 10:42:07;;;;;;;1.95;1.23;;;19.30;99.90;;;;;;20754546;28;20030;-74
2023/04/27 10:52:07;;;;;;;;;;;18.50;99.90;;;;;;20771664;28;20036;-74
2023/04/27 11:02:10;;;;;;;0.70;0.40;;;19.90;99.90;;;;;;20752742;28;19913;-74
2023/04/27 11:12:12;;;;;;;1.20;0.90;;;20.20;99.90;;;;;;20751919;28;20030;-74
2023/04/27 11:22:17;;;;;;;2.97;1.17;;;18.30;99.90;;;;;;20750947;28;20377;-74
2023/04/27 11:32:22;;;;;;;3.17;1.23;;;19.20;99.90;;;;;;20765762;28;20125;-74
2023/04/27 11:42:27;;;;;;;1.70;0.90;;;19.60;99.90;;;;;;20749049;28;20088;-74
2023/04/27 11:52:29;;;;;;;2.28;0.95;;;20.00;99.90;;;;;;20743758;28;20028;-75
2023/04/27 12:02:30;;;;;;;2.17;1.02;;;19.90;99.90;;;;;;20747796;28;20061;-75
2023/04/27 12:12:32;;;;;;;3.23;0.93;;;20.40;99.90;;;;;;20746753;28;20412;-74
2023/04/27 12:22:33;;;;;;;1.23;0.88;;;20.90;99.90;;;;;;20727643;28;20044;-74
2023/04/27 12:32:34;;;;;;;5.27;1.30;;;20.10;99.90;;;;;;20745929;28;20038;-74
2023/04/27 12:42:34;;;;;;;1.70;0.90;;;20.20;99.00;;;;;;20745587;28;20088;-74
2023/04/27 12:52:35;;;;;;;2.80;0.87;;;19.90;99.90;;;;;;20743277;28;20100;-74
2023/04/27 13:02:36;;;;;;;8.47;2.33;;;21.80;96.90;;;;;;20743401;28;20030;-75
2023/04/27 13:12:37;;;;;;;4.97;0.90;;;20.50;98.50;;;;;;20725902;28;20447;-75
2023/04/27 13:22:39;;;;;;;2.63;1.03;;;21.00;97.20;;;;;;20742753;28;20037;-75
2023/04/27 13:32:40;;;;;;;9.88;2.42;;;21.20;98.50;;;;;;20741691;28;20108;-75
2023/04/27 13:42:41;;;;;;;3.50;1.30;;;20.30;98.70;;;;;;20742006;28;20069;-74
2023/04/27 13:52:42;;;;;;;2.00;0.90;;;20.10;99.80;;;;;;20813432;28;20520;-74
2023/04/27 14:02:43;;;;;;;1.73;0.88;;;20.10;97.90;;;;;;20806016;28;20030;-74
2023/04/27 14:12:44;;;;;;;2.67;0.80;;;20.20;98.70;;;;;;20756515;28;20080;-75
2023/04/27 14:22:45;;;;;;;3.55;0.98;;;22.80;97.30;;;;;;20756448;28;20036;-73
2023/04/27 14:32:46;;;;;;;3.38;1.38;;;22.70;95.60;;;;;;20754999;28;20026;-74
2023/04/27 14:42:47;;;;;;;2.20;0.90;;;21.00;95.40;;;;;;20759426;28;20037;-74
2023/04/27 14:52:47;;;;;;;2.40;1.00;;;21.00;95.70;;;;;;20753844;28;20037;-74
2023/04/27 15:02:48;;;;;;;2.17;0.83;;;22.20;96.20;;;;;;20753731;28;20041;-75
2023/04/27 15:12:49;;;;;;;1.57;0.80;;;21.60;96.50;;;;;;20753204;28;20119;-75
2023/04/27 15:22:50;;;;;;;1.43;0.80;;;20.80;96.50;;;;;;20736396;28;20037;-74
2023/04/27 15:32:51;;;;;;;2.53;1.00;;;20.10;97.10;;;;;;20756064;28;20065;-75
2023/04/27 15:42:51;;;;;;;2.17;1.17;;;20.10;97.60;;;;;;20753361;28;20636;-75
2023/04/27 15:52:52;;;;;;;5.50;1.27;;;19.50;98.30;;;;;;20755872;28;20037;-75
2023/04/27 16:02:53;;;;;;;6.87;1.30;;;19.80;97.90;;;;;;20753628;28;20099;-75
2023/04/27 16:12:54;;;;;;;3.13;1.00;;;19.70;98.10;;;;;;20754268;28;20392;-75
2023/04/27 16:22:55;;;;;;;2.77;1.07;;;20.00;97.10;;;;;;20811090;28;20036;-75
2023/04/27 16:32:56;;;;;;;1.67;1.17;;;19.60;97.40;;;;;;20835761;28;20034;-75
2023/04/27 16:42:57;;;;;;;5.20;1.10;;;19.50;98.00;;;;;;20832639;28;20029;-73
2023/04/27 16:53:05;;;;;;;2.10;1.03;;;19.50;97.70;;;;;;20755047;28;20036;-75
2023/04/27 17:03:06;;;;;;;1.73;0.85;;;19.40;98.70;;;;;;20745097;28;20440;-75
2023/04/27 17:13:09;;;;;;;1.53;0.90;;;19.30;97.20;;;;;;20745169;28;20036;-76
2023/04/27 17:23:10;;;;;;;1.88;1.10;;;19.10;97.10;;;;;;20672075;28;20035;-75
2023/04/27 17:33:11;;;;;;;3.47;0.93;;;18.70;99.40;;;;;;20667451;28;20037;-74
2023/04/27 17:43:11;;;;;;;3.93;1.10;;;18.40;99.90;;;;;;20687782;28;20034;-75
2023/04/27 17:53:14;;;;;;;6.83;1.27;;;17.80;99.90;;;;;;20759543;28;20022;-75
2023/04/27 18:03:15;;;;;;;2.67;1.00;;;17.30;99.90;;;;;;20764690;28;20488;-75
2023/04/27 18:13:16;;;;;;;2.57;1.23;;;16.90;99.90;;;;;;20765953;28;20113;-75
2023/04/27 18:23:16;;;;;;;10.77;2.57;;;16.40;99.90;;;;;;20743024;28;20061;-76
2023/04/27 18:33:19;;;;;;;2.00;1.67;;;16.40;99.90;;;;;;20755095;28;20396;-76
2023/04/27 18:43:20;;;;;;;5.13;2.97;;;15.90;99.90;;;;;;20761278;28;20040;-76
2023/04/27 18:53:21;;;;;;;3.40;1.90;;;15.30;99.90;;;;;;20755013;28;20029;-75
2023/04/27 19:03:22;;;;;;;5.80;2.30;;;15.00;99.90;;;;;;20754743;28;20504;-75
2023/04/27 19:13:23;;;;;;;3.58;1.60;;;14.50;99.90;;;;;;20754586;28;20281;-75
2023/04/27 19:23:24;;;;;;;4.10;1.50;;;14.20;99.90;;;;;;20839140;28;20138;-75
2023/04/27 19:33:25;;;;;;;1.97;1.40;;;14.10;99.90;;;;;;20832994;28;20029;-74
2023/04/27 19:43:25;;;;;;;5.90;1.53;;;13.80;99.90;;;;;;20788909;28;20085;-74
2023/04/27 19:53:26;;;;;;;5.03;1.67;;;14.00;99.90;;;;;;20731815;28;20481;-73
2023/04/27 20:03:27;;;;;;;7.77;1.50;;;13.50;99.90;;;;;;20747530;28;20029;-72
2023/04/27 20:13:28;;;;;;;4.43;1.53;;;13.20;99.90;;;;;;20729288;28;20034;-73
2023/04/27 20:23:29;;;;;;;4.13;1.77;;;13.10;99.90;;;;;;20746795;28;20072;-72
2023/04/27 20:33:29;;;;;;;9.10;1.73;;;12.90;99.90;;;;;;20727545;28;20432;-72
2023/04/27 20:43:31;;;;;;;4.23;2.30;;;12.70;99.90;;;;;;20744556;28;20060;-73
2023/04/27 20:53:32;;;;;;;;;;;13.10;99.90;;;;;;20743752;28;20029;-73
2023/04/27 21:03:32;;;;;;;1.93;1.53;;;13.30;99.90;;;;;;20778077;22;19921;-72
2023/04/27 21:13:33;;;;;;;4.50;1.70;;;12.50;99.90;;;;;;20823696;28;20064;-73
2023/04/27 21:23:34;;;;;;;4.87;1.80;;;12.40;99.90;;;;;;20746120;28;20419;-73
2023/04/27 21:33:35;;;;;;;5.13;2.22;;;12.80;99.90;;;;;;20741944;28;20060;-74
2023/04/27 21:43:40;;;;;;;2.20;1.30;;;12.90;99.90;;;;;;20723850;28;20030;-73
2023/04/27 21:53:41;;;;;;;5.70;2.08;;;12.90;99.90;;;;;;20740896;28;20061;-74
2023/04/27 22:03:42;;;;;;;3.17;1.67;;;12.90;99.90;;;;;;20722970;28;20038;-73
2023/04/27 22:13:43;;;;;;;1.53;1.27;;;12.50;99.90;;;;;;20756348;28;20377;-73
2023/04/27 22:23:43;;;;;;;4.00;1.67;;;12.00;99.90;;;;;;20747116;28;20030;-73
2023/04/27 22:33:44;;;;;;;2.10;1.37;;;12.00;99.90;;;;;;20736966;28;20104;-73
2023/04/27 22:43:45;;;;;;;4.33;1.73;;;11.50;99.90;;;;;;20753359;28;20030;-73
2023/04/27 22:53:47;;;;;;;7.10;1.60;;;11.60;99.90;;;;;;20735152;28;20046;-73
2023/04/27 23:03:48;;;;;;;2.58;1.75;;;11.70;99.90;;;;;;20752420;28;20067;-73
2023/04/27 23:13:49;;;;;;;3.30;1.93;;;11.80;99.90;;;;;;20750705;28;20061;-73
2023/04/27 23:23:50;;;;;;;2.97;1.70;;;11.50;99.90;;;;;;20731672;28;20503;-73
2023/04/27 23:33:51;;;;;;;5.20;1.97;;;11.60;99.90;;;;;;20731484;28;20037;-73
2023/04/27 23:43:52;;;;;;;6.65;1.90;;;11.60;99.90;;;;;;20748323;28;20066;-74
2023/04/27 23:53:53;;;;;;;2.37;1.47;;;11.60;99.90;;;;;;20730527;28;20053;-73
